Time;durP1;ratioP1;P1;durP2;ratioP2;P2;SDS_P1;SDS_P2;PMS_P1;PMS_P2;Temp;Humidity;BMP_temperature;BMP_pressure;BME280_temperature;BME280_humidity;BME280_pressure;Samples;Min_cycle;Max_cycle;Signal;HPM_P1;HPM_P2
2023/07/09 00:00:29;;;;;;;9.67;4.63;;;27.40;27.60;;;;;;21089082;28;20166;-55
2023/07/09 00:10:30;;;;;;;12.27;6.67;;;27.40;27.00;;;;;;21087981;28;20068;-57
2023/07/09 00:20:31;;;;;;;15.43;11.40;;;27.30;27.40;;;;;;21088298;28;20056;-55
2023/07/09 00:30:32;;;;;;;9.55;4.22;;;27.20;28.10;;;;;;21086983;28;20048;-56
2023/07/09 00:40:33;;;;;;;6.17;4.00;;;27.00;28.70;;;;;;21086606;28;20051;-57
2023/07/09 00:50:50;;;;;;;8.80;4.63;;;26.70;29.20;;;;;;21085789;28;20118;-55
2023/07/09 01:00:56;;;;;;;7.18;4.30;;;26.50;29.80;;;;;;21085272;28;20071;-56
2023/07/09 01:10:58;;;;;;;9.05;4.68;;;26.40;30.10;;;;;;21084846;28;20078;-56
2023/07/09 01:21:15;;;;;;;8.88;4.90;;;26.20;30.60;;;;;;21082149;28;20058;-56
2023/07/09 01:31:16;;;;;;;9.57;4.78;;;26.10;30.90;;;;;;21082069;28;20040;-56
2023/07/09 01:41:17;;;;;;;13.03;5.17;;;26.10;31.10;;;;;;21082160;28;20043;-55
2023/07/09 01:51:18;;;;;;;9.75;4.45;;;25.90;31.60;;;;;;21080765;28;20117;-55
2023/07/09 02:01:19;;;;;;;8.67;4.13;;;25.80;32.00;;;;;;21079279;28;20044;-54
2023/07/09 02:11:20;;;;;;;6.20;3.70;;;25.60;31.50;;;;;;21080022;28;20534;-55
2023/07/09 02:21:21;;;;;;;8.70;4.37;;;25.50;31.50;;;;;;21079262;28;20079;-56
2023/07/09 02:31:21;;;;;;;9.20;3.67;;;25.20;32.10;;;;;;21079241;28;20048;-55
2023/07/09 02:41:22;;;;;;;7.80;3.60;;;25.10;31.80;;;;;;21077448;28;20051;-56
2023/07/09 02:51:24;;;;;;;7.40;4.13;;;24.90;32.20;;;;;;21076943;28;20044;-56
2023/07/09 03:01:26;;;;;;;7.28;4.25;;;24.90;32.40;;;;;;21092050;28;20109;-55
2023/07/09 03:11:32;;;;;;;7.18;3.78;;;24.90;32.60;;;;;;21094461;28;20104;-55
2023/07/09 03:21:33;;;;;;;6.97;3.65;;;24.80;33.00;;;;;;21093243;28;20058;-56
2023/07/09 03:31:34;;;;;;;6.03;3.33;;;24.70;33.40;;;;;;21093101;28;20076;-55
2023/07/09 03:41:35;;;;;;;7.47;3.47;;;24.60;33.80;;;;;;21092283;28;20382;-56
2023/07/09 03:51:36;;;;;;;7.40;3.60;;;24.60;33.90;;;;;;21091383;28;20118;-55
2023/07/09 04:01:37;;;;;;;8.07;3.65;;;24.40;34.30;;;;;;21090059;28;20056;-56
2023/07/09 04:11:38;;;;;;;6.80;3.40;;;24.10;34.60;;;;;;21089170;28;20072;-57
2023/07/09 04:21:39;;;;;;;8.30;3.85;;;23.70;35.00;;;;;;21088550;28;20052;-55
2023/07/09 04:31:40;;;;;;;8.52;3.72;;;23.70;35.10;;;;;;21088169;28;20098;-55
2023/07/09 04:41:41;;;;;;;6.57;3.83;;;23.60;35.10;;;;;;21085900;28;20052;-55
2023/07/09 04:51:42;;;;;;;9.15;3.92;;;23.50;35.40;;;;;;21086112;28;20481;-54
2023/07/09 05:01:42;;;;;;;8.70;3.72;;;23.40;35.50;;;;;;21085296;28;20055;-54
2023/07/09 05:11:43;;;;;;;9.05;3.97;;;23.40;35.90;;;;;;21084650;28;20143;-55
2023/07/09 05:21:44;;;;;;;10.13;5.32;;;23.60;36.00;;;;;;21082963;28;20047;-55
2023/07/09 05:31:45;;;;;;;8.82;4.20;;;23.50;36.40;;;;;;21082359;28;20044;-56
2023/07/09 05:41:46;;;;;;;9.15;4.15;;;23.50;37.00;;;;;;21081140;28;20403;-55
2023/07/09 05:51:46;;;;;;;7.20;3.72;;;23.40;37.60;;;;;;21080729;28;20085;-56
2023/07/09 06:01:47;;;;;;;11.20;4.47;;;23.40;37.30;;;;;;21079256;28;20048;-55
2023/07/09 06:11:48;;;;;;;9.13;4.10;;;23.40;37.50;;;;;;21079784;28;20040;-56
2023/07/09 06:21:49;;;;;;;10.73;4.65;;;23.50;37.60;;;;;;21078916;28;20058;-56
2023/07/09 06:31:49;;;;;;;6.93;4.05;;;23.70;37.40;;;;;;21078474;28;20071;-55
2023/07/09 06:41:50;;;;;;;8.63;4.70;;;23.70;37.70;;;;;;21077766;28;20079;-55
2023/07/09 06:51:51;;;;;;;10.57;4.50;;;23.80;38.10;;;;;;21077772;28;20086;-57
2023/07/09 07:01:52;;;;;;;5.88;3.72;;;24.10;37.60;;;;;;21076771;28;20055;-56
2023/07/09 07:11:52;;;;;;;8.95;4.30;;;24.70;37.40;;;;;;21076221;28;20055;-57
2023/07/09 07:21:53;;;;;;;7.37;4.23;;;25.20;36.90;;;;;;21075427;28;20517;-57
2023/07/09 07:31:54;;;;;;;7.33;3.77;;;25.60;36.80;;;;;;21074744;28;20123;-56
2023/07/09 07:41:55;;;;;;;6.22;4.47;;;26.50;36.00;;;;;;21077338;28;20044;-56
2023/07/09 07:51:56;;;;;;;8.48;5.45;;;27.10;35.90;;;;;;21089907;28;20040;-56
2023/07/09 08:01:57;;;;;;;8.10;5.13;;;27.60;34.20;;;;;;21089290;28;20044;-56
2023/07/09 08:11:58;;;;;;;9.02;5.20;;;28.00;34.60;;;;;;21087414;28;20043;-56
2023/07/09 08:21:59;;;;;;;8.07;4.40;;;28.30;33.30;;;;;;21087504;28;20059;-53
2023/07/09 08:31:59;;;;;;;;;;;28.20;33.30;;;;;;21087467;28;20044;-55
2023/07/09 08:42:07;;;;;;;7.63;4.90;;;28.10;33.10;;;;;;21086133;28;20285;-56
2023/07/09 08:52:35;;;;;;;9.77;5.82;;;28.10;33.50;;;;;;21084656;28;20051;-56
2023/07/09 09:02:41;;;;;;;9.60;5.20;;;28.10;33.10;;;;;;21073425;28;20044;-56
2023/07/09 09:13:13;;;;;;;17.75;7.60;;;28.30;33.60;;;;;;21083003;28;20154;-56
2023/07/09 09:23:15;;;;;;;9.52;4.43;;;28.60;33.00;;;;;;21082312;28;20062;-56
2023/07/09 09:33:18;;;;;;;11.93;5.72;;;28.70;33.30;;;;;;21082850;28;20076;-57
2023/07/09 09:43:21;;;;;;;12.70;6.72;;;28.80;33.20;;;;;;21080635;28;20051;-55
2023/07/09 09:53:24;;;;;;;7.93;4.43;;;29.10;33.00;;;;;;21081369;28;20177;-56
2023/07/09 10:03:36;;;;;;;6.93;3.97;;;29.60;31.50;;;;;;21078314;28;20048;-55
2023/07/09 10:13:42;;;;;;;6.65;3.65;;;30.10;31.00;;;;;;21079514;28;20428;-56
2023/07/09 10:24:08;;;;;;;8.88;3.83;;;30.50;30.30;;;;;;21077714;28;20052;-56
2023/07/09 10:34:24;;;;;;;7.30;3.65;;;30.70;30.00;;;;;;21077279;28;20485;-57
2023/07/09 10:44:30;;;;;;;7.88;4.53;;;30.80;29.50;;;;;;21076568;28;20052;-57
2023/07/09 10:54:34;;;;;;;6.80;3.92;;;30.90;29.50;;;;;;21076540;28;20059;-56
2023/07/09 11:04:53;;;;;;;6.28;4.50;;;31.10;29.30;;;;;;21077089;28;20052;-55
2023/07/09 11:15:10;;;;;;;6.03;3.58;;;31.40;28.80;;;;;;21076671;28;20044;-57
2023/07/09 11:25:14;;;;;;;6.38;3.88;;;31.50;27.00;;;;;;21091273;28;20064;-56
2023/07/09 11:35:25;;;;;;;6.60;3.72;;;31.50;28.40;;;;;;21092145;28;20047;-55
2023/07/09 11:45:32;;;;;;;5.60;3.70;;;31.80;27.20;;;;;;21090384;28;20130;-58
2023/07/09 11:55:44;;;;;;;5.10;3.03;;;32.00;27.40;;;;;;21090937;28;20448;-56
2023/07/09 12:05:52;;;;;;;7.00;4.18;;;32.10;26.80;;;;;;21089899;28;20041;-57
2023/07/09 12:15:53;;;;;;;5.07;2.95;;;32.20;26.20;;;;;;21088205;28;20063;-56
2023/07/09 12:25:54;;;;;;;10.48;8.23;;;32.40;25.40;;;;;;21086259;28;20052;-56
2023/07/09 12:36:01;;;;;;;6.05;3.28;;;32.50;24.50;;;;;;21086641;28;20087;-55
2023/07/09 12:46:02;;;;;;;7.60;3.13;;;32.60;24.90;;;;;;21086116;28;20093;-56
2023/07/09 12:56:10;;;;;;;5.38;2.60;;;32.60;24.40;;;;;;21086102;28;20044;-56
2023/07/09 13:06:35;;;;;;;7.60;3.10;;;32.70;24.50;;;;;;21084047;28;20058;-56
2023/07/09 13:16:40;;;;;;;6.32;3.05;;;32.80;24.40;;;;;;21082732;28;20079;-55
2023/07/09 13:26:41;;;;;;;4.35;2.67;;;33.00;23.20;;;;;;21081919;28;20063;-55
2023/07/09 13:36:42;;;;;;;5.47;3.40;;;33.10;22.90;;;;;;21082331;28;20051;-54
2023/07/09 13:46:42;;;;;;;4.90;2.47;;;33.10;23.30;;;;;;21080930;28;20123;-58
2023/07/09 13:56:44;;;;;;;4.20;2.63;;;33.20;22.50;;;;;;21080238;28;20374;-56
2023/07/09 14:06:48;;;;;;;3.95;2.58;;;33.20;22.20;;;;;;21078109;28;20102;-55
2023/07/09 14:16:51;;;;;;;4.78;2.28;;;33.30;21.80;;;;;;21078625;28;20036;-55
2023/07/09 14:26:53;;;;;;;4.55;2.25;;;33.60;21.20;;;;;;21077998;28;20064;-56
2023/07/09 14:36:56;;;;;;;3.50;2.17;;;33.70;20.60;;;;;;21078595;28;20086;-55
2023/07/09 14:46:59;;;;;;;3.75;2.20;;;33.60;20.90;;;;;;21078666;28;20048;-55
2023/07/09 14:56:59;;;;;;;4.00;1.65;;;33.60;21.10;;;;;;21090900;28;20052;-55
2023/07/09 15:07:00;;;;;;;4.00;2.30;;;33.70;20.20;;;;;;21095351;28;20047;-56
2023/07/09 15:17:01;;;;;;;3.90;2.72;;;34.00;20.80;;;;;;21094218;28;20073;-55
2023/07/09 15:27:04;;;;;;;3.63;2.20;;;34.00;20.80;;;;;;21091999;28;20090;-56
2023/07/09 15:37:12;;;;;;;6.65;4.65;;;34.10;20.90;;;;;;21091275;28;20048;-55
2023/07/09 15:47:18;;;;;;;3.63;2.03;;;34.00;20.30;;;;;;21092115;28;20050;-56
2023/07/09 15:57:19;;;;;;;3.80;2.22;;;34.20;20.10;;;;;;21091066;28;20072;-55
2023/07/09 16:07:23;;;;;;;3.25;2.25;;;34.20;20.00;;;;;;21089298;28;20052;-57
2023/07/09 16:17:23;;;;;;;6.32;2.60;;;34.20;19.90;;;;;;21089263;28;20048;-55
2023/07/09 16:27:25;;;;;;;4.93;3.72;;;34.10;20.90;;;;;;21079319;28;20044;-55
2023/07/09 16:37:26;;;;;;;3.85;2.13;;;34.20;19.40;;;;;;21087458;28;20554;-55
2023/07/09 16:47:27;;;;;;;4.57;1.90;;;34.10;20.10;;;;;;21086435;28;20040;-55
2023/07/09 16:57:31;;;;;;;4.10;2.20;;;34.20;19.90;;;;;;21085295;28;20040;-55
2023/07/09 17:07:33;;;;;;;4.05;2.33;;;34.20;21.00;;;;;;21084318;28;20059;-56
2023/07/09 17:17:34;;;;;;;3.45;1.77;;;34.20;20.50;;;;;;21084924;28;20058;-55
2023/07/09 17:27:34;;;;;;;5.60;2.40;;;34.20;20.10;;;;;;21082773;28;20083;-55
2023/07/09 17:37:35;;;;;;;2.75;1.80;;;34.10;20.50;;;;;;21081258;28;20086;-55
2023/07/09 17:47:36;;;;;;;5.15;2.30;;;33.90;20.60;;;;;;21080846;28;20481;-56
2023/07/09 17:57:38;;;;;;;4.00;2.30;;;33.90;21.00;;;;;;21081852;28;20481;-55
2023/07/09 18:07:39;;;;;;;5.13;2.20;;;33.80;21.30;;;;;;21080046;28;20177;-55
2023/07/09 18:17:39;;;;;;;4.70;2.40;;;33.60;21.50;;;;;;21079830;28;20080;-55
2023/07/09 18:27:46;;;;;;;5.07;2.40;;;33.60;21.70;;;;;;21077750;28;20091;-55
2023/07/09 18:37:49;;;;;;;4.35;2.40;;;33.60;21.70;;;;;;21077397;28;20051;-55
2023/07/09 18:47:51;;;;;;;5.03;2.22;;;33.40;22.10;;;;;;21078269;28;20040;-55
2023/07/09 18:57:53;;;;;;;5.75;2.40;;;33.30;21.90;;;;;;21077809;28;20052;-55
2023/07/09 19:07:57;;;;;;;3.13;2.20;;;33.20;22.10;;;;;;21077696;28;20128;-55
2023/07/09 19:17:57;;;;;;;4.22;2.75;;;33.10;21.70;;;;;;21077454;28;20556;-55
2023/07/09 19:27:58;;;;;;;4.57;3.15;;;32.90;22.20;;;;;;21078159;28;20475;-55
2023/07/09 19:37:59;;;;;;;5.32;3.40;;;32.60;22.10;;;;;;21081670;28;20405;-55
2023/07/09 19:48:00;;;;;;;4.43;3.08;;;32.40;22.50;;;;;;21091848;28;20044;-54
2023/07/09 19:58:02;;;;;;;7.22;3.47;;;32.10;22.70;;;;;;21090843;28;20051;-55
2023/07/09 20:08:14;;;;;;;6.32;3.75;;;31.90;23.00;;;;;;21090255;28;20044;-56
2023/07/09 20:18:16;;;;;;;6.65;3.03;;;31.70;23.30;;;;;;21089663;28;20044;-56
2023/07/09 20:28:18;;;;;;;5.90;3.80;;;31.50;23.40;;;;;;21087422;28;20056;-55
2023/07/09 20:38:22;;;;;;;8.25;3.65;;;31.40;24.00;;;;;;21086143;28;20052;-56
2023/07/09 20:48:24;;;;;;;6.90;3.65;;;31.20;24.10;;;;;;21086047;28;20055;-56
2023/07/09 20:58:26;;;;;;;6.25;3.60;;;31.00;24.70;;;;;;21086044;28;20446;-54
2023/07/09 21:08:28;;;;;;;5.78;3.40;;;30.80;25.30;;;;;;21084859;28;20055;-55
2023/07/09 21:18:33;;;;;;;7.43;4.10;;;30.60;25.30;;;;;;21084682;28;20047;-55
2023/07/09 21:28:34;;;;;;;5.50;3.92;;;30.40;25.30;;;;;;21084807;28;20047;-57
2023/07/09 21:38:35;;;;;;;5.85;3.20;;;30.20;25.70;;;;;;21082920;28;20040;-55
2023/07/09 21:48:35;;;;;;;5.25;3.30;;;30.00;26.10;;;;;;21080498;28;20079;-57
2023/07/09 21:58:36;;;;;;;5.85;3.20;;;29.70;26.30;;;;;;21080003;28;20489;-56
2023/07/09 22:08:37;;;;;;;8.85;3.30;;;29.60;26.60;;;;;;21080952;28;20507;-55
2023/07/09 22:18:38;;;;;;;4.65;2.45;;;29.50;26.60;;;;;;21079599;28;20094;-56
2023/07/09 22:28:40;;;;;;;8.75;2.97;;;29.20;27.10;;;;;;21081157;28;20481;-55
2023/07/09 22:38:41;;;;;;;9.57;5.82;;;29.00;27.80;;;;;;21079859;28;20082;-56
2023/07/09 22:48:43;;;;;;;4.85;3.47;;;28.80;27.90;;;;;;21079266;28;20052;-56
2023/07/09 22:58:44;;;;;;;4.22;2.80;;;28.70;27.90;;;;;;21077790;28;20048;-58
2023/07/09 23:08:46;;;;;;;6.57;2.40;;;28.70;28.10;;;;;;21078490;28;20058;-57
2023/07/09 23:18:47;;;;;;;5.68;3.13;;;28.40;28.70;;;;;;21092361;28;20040;-56
2023/07/09 23:28:48;;;;;;;6.15;3.28;;;28.20;29.40;;;;;;21092616;28;20052;-54
2023/07/09 23:38:49;;;;;;;;;;;28.00;29.60;;;;;;21093258;28;20478;-56
2023/07/09 23:48:50;;;;;;;5.80;2.40;;;27.70;29.90;;;;;;21092221;28;19920;-56
2023/07/09 23:58:51;;;;;;;;;;;27.70;29.80;;;;;;21090888;28;20075;-56
